Date,TemperatureHighF,TemperatureAvgF,TemperatureLowF,DewpointHighF,DewpointAvgF,DewpointLowF,HumidityHigh,HumidityAvg,HumidityLow,PressureMaxIn,PressureMinIn,WindSpeedMaxMPH,WindSpeedAvgMPH,GustSpeedMaxMPH,PrecipitationSumIn
2013-1-1,14.9,5.3,-5.4,8.6,-2.7,-10.3,81,68,52,30.27,30.09,11,2,0,0.00
2013-1-2,24.4,17.6,8.4,14.0,10.0,3.5,83,72,59,30.09,29.94,10,1,0,0.00
2013-1-3,22.2,16.9,8.4,18.7,12.1,2.3,92,81,72,30.18,30.01,17,5,18,0.00
2013-1-4,29.4,19.8,8.3,17.5,12.4,3.2,85,73,58,30.12,30.00,19,4,24,0.00
2013-1-5,34.3,21.4,5.8,26.4,16.7,2.8,94,82,67,30.13,29.82,15,2,17,0.03
2013-1-6,24.7,19.6,10.4,19.1,14.1,5.5,89,79,61,30.20,29.85,16,4,19,0.00
2013-1-7,37.5,28.3,11.4,26.1,19.9,6.4,87,71,56,30.15,29.88,24,4,26,0.05
2013-1-8,38.2,28.6,12.9,31.8,24.2,11.7,100,84,64,29.99,29.77,18,1,20,0.07
2013-1-9,37.5,31.7,20.2,30.1,23.7,17.3,92,73,50,30.34,29.79,24,7,26,0.00
2013-1-10,37.9,26.4,14.9,28.8,20.7,14.0,100,81,51,30.38,29.99,10,0,14,0.01
2013-1-11,44.3,39.5,34.3,44.3,38.1,-99.9,100,100,77,29.65,29.43,10,0,0,0.00
2013-1-12,47.9,27.9,14.9,45.1,21.1,5.2,100,75,64,30.00,29.42,31,9,42,0.01
2013-1-13,14.9,10.6,7.7,7.1,2.6,-0.7,79,70,62,30.24,29.97,21,7,21,0.00
2013-1-14,19.7,11.1,4.1,10.5,4.1,-99.9,86,75,59,30.42,30.24,27,3,27,0.00
2013-1-15,30.9,17.7,2.4,16.9,8.6,-1.2,92,69,45,30.38,29.94,16,1,21,0.00
2013-1-16,33.5,26.6,20.6,32.6,19.2,-99.9,99,76,60,30.10,29.69,19,5,24,0.00
2013-1-17,21.3,15.4,8.8,10.8,3.8,-2.6,80,60,42,30.39,30.10,17,5,20,0.00
2013-1-18,75.1,29.9,8.6,68.9,22.8,3.7,88,76,58,30.37,29.72,20,2,25,0.04
2013-1-19,46.0,31.9,6.9,33.7,23.1,-5.8,94,71,32,30.05,29.57,43,9,50,0.00
2013-1-20,11.6,6.9,2.6,1.2,-4.5,-8.1,77,58,40,30.34,30.05,22,8,28,0.00
2013-1-21,4.8,-3.0,-7.5,-0.8,-11.9,-17.7,81,61,46,30.33,30.17,22,8,26,0.00
2013-1-22,3.7,-3.2,-10.3,-6.2,-11.9,-16.1,73,62,47,30.40,30.30,14,3,17,0.00
2013-1-23,16.4,8.3,-2.4,10.6,0.0,-12.6,81,68,51,30.52,30.07,24,6,25,0.00
2013-1-24,11.2,2.6,-5.9,0.8,-7.5,-99.9,69,61,52,30.70,30.31,10,1,0,0.00
2013-1-25,20.8,15.6,9.2,15.1,8.0,0.8,88,72,59,30.30,29.91,25,5,25,0.00
2013-1-26,23.8,14.4,1.1,12.2,3.7,-99.9,80,64,47,30.39,30.23,12,1,14,0.01
2013-1-27,30.6,27.4,23.0,30.6,21.9,11.8,100,81,61,30.23,29.78,11,1,13,0.00
2013-1-28,34.1,32.2,30.6,34.1,32.2,30.6,100,100,100,29.89,29.66,12,1,13,0.19
2013-1-29,41.3,35.2,33.1,41.3,35.0,31.2,100,99,91,29.67,29.45,17,2,17,0.41
2013-1-30,33.2,22.7,12.1,32.2,20.6,4.6,100,92,69,29.62,29.39,22,8,26,0.00
2013-1-31,12.6,5.7,-2.8,6.2,-2.3,-99.9,81,69,57,30.19,29.63,24,9,28,0.00
2013-2-1,3.0,-2.3,-10.3,-1.3,-10.2,-16.4,81,65,49,30.33,30.12,14,4,16,0.00
2013-2-2,14.1,6.1,1.8,0.7,-1.1,-3.9,82,72,49,30.15,29.99,6,0,0,0.09
2013-2-3,15.6,10.9,3.9,8.5,3.7,-0.3,86,73,56,30.03,29.92,18,5,21,0.00
2013-2-4,18.6,11.6,1.3,8.8,2.8,-3.3,87,69,42,30.01,29.89,0,0,0,0.03
2013-2-5,27.5,17.6,0.3,24.2,13.1,-4.2,94,82,69,30.08,29.69,19,3,21,0.00
2013-2-6,26.4,13.5,-7.0,24.6,9.6,-11.3,95,83,71,30.19,30.01,16,0,17,0.00
2013-2-7,30.1,27.3,24.7,30.0,27.1,22.2,100,99,90,30.14,29.95,8,1,0,0.00
2013-2-8,26.4,18.0,2.2,22.2,11.0,-0.9,90,75,49,30.35,30.15,7,0,0,0.01
2013-2-9,27.8,18.3,-1.2,24.6,15.7,-4.8,100,89,82,30.36,30.00,10,0,12,0.00
2013-2-10,38.5,31.7,26.1,38.5,31.5,24.6,100,99,91,29.99,29.24,16,2,20,0.05
2013-2-11,35.3,28.8,22.1,35.3,26.0,17.3,100,89,74,29.96,29.24,30,10,30,0.05
2013-2-12,31.9,23.5,19.1,22.7,16.9,-99.9,100,78,64,30.03,29.79,16,3,18,0.00
2013-2-13,37.2,29.2,19.5,32.4,25.0,19.0,100,85,62,29.79,29.55,12,1,12,0.00
2013-2-14,34.1,30.0,17.0,34.1,25.1,7.0,100,83,59,30.06,29.49,21,6,24,0.08
2013-2-15,17.3,12.5,9.0,7.9,1.9,-1.6,69,62,52,30.23,30.06,15,5,17,0.00
2013-2-16,17.7,9.1,-5.0,2.3,-1.3,-9.0,81,62,38,30.21,30.14,17,3,17,0.00
2013-2-17,25.3,10.5,-12.0,18.2,1.2,-16.4,85,65,46,30.20,29.80,11,1,14,0.01
2013-2-18,41.1,30.3,18.3,34.4,24.2,-99.9,100,80,65,29.80,29.45,25,4,26,0.00
2013-2-19,18.3,9.4,4.7,15.9,0.2,-7.3,91,66,50,30.25,29.57,31,12,32,0.00
2013-2-20,25.7,11.6,0.9,99.9,1.7,-7.7,80,61,39,30.39,30.18,17,4,19,0.00
2013-2-21,23.0,13.9,-0.2,20.9,7.9,-99.9,95,78,64,30.46,30.05,19,1,21,0.00
2013-2-22,29.7,24.4,21.3,29.5,23.4,20.0,100,96,85,30.05,29.77,12,1,18,0.07
2013-2-23,28.2,24.5,19.1,21.9,20.3,15.7,95,84,69,29.91,29.78,14,5,16,0.01
2013-2-24,39.1,24.1,9.9,27.5,18.4,8.1,100,81,50,30.09,29.92,5,0,0,0.01
2013-2-25,41.1,28.3,16.7,27.2,22.5,15.0,99,81,53,30.11,30.00,0,0,0,0.00
2013-2-26,37.8,29.8,20.0,26.6,24.2,20.0,100,81,61,30.01,29.71,20,2,28,0.00
2013-2-27,33.4,31.3,28.8,32.5,28.7,22.7,100,90,73,29.84,29.67,12,4,16,0.08
2013-2-28,32.1,29.6,24.1,29.2,23.0,14.1,96,77,61,30.12,29.84,16,3,16,0.01
2013-3-1,30.3,23.6,16.9,17.3,13.4,6.6,85,65,46,30.25,30.13,12,1,15,0.01
2013-3-2,30.4,17.8,3.4,11.7,3.1,-99.9,85,57,24,30.28,30.14,10,1,13,0.00
2013-3-3,35.6,17.2,-1.8,10.6,-0.7,-99.9,86,58,20,30.15,30.02,2,0,0,0.00
2013-3-4,29.7,22.7,13.8,20.8,12.7,4.0,79,65,50,30.05,29.96,14,2,17,0.00
2013-3-5,28.1,25.2,22.9,27.8,20.2,-99.9,100,94,77,30.13,29.91,11,1,0,0.03
2013-3-6,30.6,24.1,11.4,23.2,3.6,-99.9,96,80,59,30.31,30.13,16,4,16,0.11
2013-3-7,36.2,21.8,0.3,22.2,-31.4,-99.9,93,68,46,30.38,30.26,3,0,0,0.01
2013-3-8,41.6,31.9,8.4,26.0,-35.1,-99.9,89,64,47,30.38,30.14,7,0,0,0.00
2013-3-9,38.3,34.0,29.8,37.0,-6.3,-99.9,98,82,78,30.15,29.74,12,3,17,0.04
2013-3-10,37.5,35.2,32.4,37.3,34.6,-99.9,100,100,47,29.80,29.61,10,1,14,0.25
2013-3-11,32.4,29.6,26.4,32.4,29.1,24.7,100,98,92,29.74,29.57,0,0,0,0.06
2013-3-12,28.2,24.6,20.3,26.3,19.2,-99.9,100,83,66,30.06,29.74,17,4,21,0.02
2013-3-13,30.3,21.6,14.4,16.8,10.5,7.0,88,64,38,30.29,30.06,18,6,20,0.02
2013-3-14,37.9,25.0,11.6,32.0,20.2,8.5,95,82,67,30.28,29.99,6,0,0,0.18
2013-3-15,34.6,30.5,24.5,34.3,30.0,22.5,100,98,89,29.99,29.77,11,1,0,0.11
2013-3-16,28.8,23.5,18.8,28.8,17.4,8.1,100,78,56,30.14,29.80,17,3,17,0.08
2013-3-17,28.2,19.0,5.6,14.3,7.9,-0.9,79,62,45,30.27,29.98,16,2,18,0.00
2013-3-18,31.8,20.6,14.6,30.5,17.5,7.8,100,87,74,29.98,29.53,26,4,28,0.10
2013-3-19,24.5,16.7,9.0,8.3,5.2,-0.3,78,61,40,30.06,29.68,30,13,30,0.00
2013-3-20,19.1,11.3,3.7,4.1,-2.3,-99.9,72,54,42,30.10,30.04,27,9,27,0.00
2013-3-21,25.7,13.3,-1.8,10.0,2.2,-99.9,84,63,43,30.09,30.00,14,3,16,0.01
2013-3-22,38.5,20.7,2.2,15.5,7.9,-1.4,87,61,30,30.06,29.99,6,0,0,0.07
2013-3-23,42.1,28.3,13.1,20.8,14.8,-99.9,87,61,33,30.11,30.01,5,0,0,0.00
2013-3-24,33.1,30.2,27.9,26.2,21.6,19.0,83,70,60,30.04,29.83,13,1,16,0.00
2013-3-25,36.0,29.7,20.0,23.8,19.5,15.6,84,66,55,30.11,29.87,16,4,19,0.00
2013-3-26,40.2,32.3,24.8,25.1,19.1,-99.9,76,60,40,30.23,30.11,12,2,17,0.00
2013-3-27,42.8,34.4,24.5,25.4,20.4,15.3,73,58,35,30.28,30.22,12,1,13,0.00
2013-3-28,48.0,33.2,17.8,24.1,17.6,13.2,89,57,27,30.32,30.24,8,0,0,0.00
2013-3-29,52.2,36.1,18.0,27.4,21.0,12.3,98,60,27,30.29,30.13,5,0,0,0.00
2013-3-30,48.3,40.7,31.0,43.2,34.1,24.3,100,79,56,30.13,29.76,18,1,20,0.27
2013-3-31,39.9,35.2,28.5,38.9,28.7,11.4,100,80,39,29.93,29.69,28,8,28,0.00
2013-4-1,31.0,26.5,21.0,14.8,11.5,7.2,72,53,39,30.17,29.93,22,8,24,0.00
2013-4-2,35.5,27.6,19.2,16.1,12.1,5.0,75,53,28,30.31,30.16,17,6,20,0.00
2013-4-3,45.8,33.1,16.1,23.2,14.0,3.0,87,49,20,30.42,30.16,8,0,0,0.00
2013-4-4,49.8,41.6,35.3,36.5,25.8,17.4,68,53,45,30.16,29.93,20,5,21,0.00
2013-4-5,75.1,36.9,26.0,34.3,22.6,16.0,100,60,29,30.20,30.02,12,1,17,0.03
2013-4-6,55.6,41.9,31.6,49.9,33.4,17.7,100,74,50,30.02,29.43,24,4,27,0.11
2013-4-7,49.6,40.2,35.2,37.7,34.0,32.1,98,79,57,29.91,29.59,20,4,26,0.00
2013-4-8,46.1,40.0,35.9,44.4,36.4,32.8,100,87,75,29.96,29.66,11,0,13,0.07
2013-4-9,40.1,37.0,32.5,40.1,36.9,31.7,100,100,97,30.07,29.86,17,3,21,1.09
2013-4-10,35.2,32.7,30.4,34.4,31.7,25.9,100,96,70,30.07,29.88,16,2,21,0.71
2013-4-11,34.6,33.0,30.3,34.4,31.0,24.8,100,93,68,29.88,29.59,21,6,28,0.21
2013-4-12,34.9,32.0,29.5,34.4,30.7,29.2,100,95,83,29.74,29.53,12,2,16,0.11
2013-4-13,37.0,32.3,29.0,31.8,27.7,24.0,100,83,64,29.95,29.73,18,6,20,0.01
2013-4-14,38.2,32.4,27.2,37.6,31.1,24.6,100,95,76,29.96,29.55,19,2,20,0.62
2013-4-15,49.1,40.9,31.6,41.5,32.7,27.3,100,75,44,29.93,29.56,30,6,33,0.33
2013-4-16,50.8,38.7,30.3,30.6,28.4,24.2,94,68,36,30.28,29.92,13,3,17,0.00
2013-4-17,39.5,35.4,27.8,38.2,33.3,27.1,100,92,71,30.28,29.82,19,2,21,0.40
2013-4-18,40.6,38.5,35.2,40.6,38.5,35.0,100,100,100,29.81,29.25,18,3,21,0.43
2013-4-19,36.8,32.3,28.4,35.0,26.6,18.5,100,80,56,29.90,29.24,27,11,32,0.01
2013-4-20,46.1,33.7,21.0,23.0,15.4,4.9,95,52,20,30.32,29.90,17,3,19,0.00
2013-4-21,50.7,38.6,29.1,41.8,31.4,16.3,100,77,51,30.40,30.10,16,2,18,0.17
2013-4-22,76.4,47.0,45.1,48.5,44.4,-99.9,100,93,79,30.13,29.88,7,0,12,0.18
2013-4-23,48.5,37.9,29.7,48.5,32.8,25.9,100,83,61,29.99,29.81,21,5,24,0.04
2013-4-24,51.6,39.3,27.0,38.2,26.0,19.2,97,63,35,29.99,29.85,21,5,28,0.02
2013-4-25,49.6,40.1,31.8,37.7,31.3,-99.9,99,74,39,30.17,29.87,17,5,19,0.03
2013-4-26,71.5,55.0,30.9,47.9,38.1,27.6,95,56,33,30.16,29.96,19,3,24,0.00
2013-4-27,72.8,59.6,48.0,51.6,47.6,44.1,95,67,40,30.06,29.89,12,1,16,0.00
2013-4-28,75.3,59.2,40.5,51.5,44.4,38.1,100,64,27,29.89,29.63,12,1,14,0.00
2013-4-29,74.4,64.6,56.2,58.0,52.8,44.3,96,66,51,29.69,29.53,13,1,14,0.00
2013-4-30,83.6,70.3,55.4,60.3,55.2,44.6,99,62,37,29.83,29.45,28,5,28,0.01
2013-5-1,62.4,56.0,49.2,49.1,46.1,41.5,95,71,49,30.08,29.82,17,3,20,0.00
2013-5-3,39.8,36.4,32.1,39.8,34.1,-99.9,100,99,56,30.16,30.00,7,0,12,0.68
2013-5-4,70.8,54.0,39.5,56.5,47.4,-99.9,100,84,51,30.02,29.93,11,0,0,0.05
2013-5-5,74.2,57.2,41.8,52.1,46.4,39.3,100,73,30,30.03,29.93,12,0,13,0.00
2013-5-6,77.4,60.8,42.2,55.0,44.2,32.9,100,63,23,30.03,29.91,5,0,0,0.00
2013-5-7,82.0,67.1,44.5,49.9,42.4,33.1,100,48,19,29.98,29.87,11,0,18,0.00
2013-5-8,81.2,66.3,46.1,54.3,46.6,39.1,98,56,24,29.93,29.84,13,1,13,0.00
2013-5-9,64.8,57.0,46.8,59.5,54.4,-99.9,100,93,60,29.91,29.84,12,2,17,0.58
2013-5-10,63.7,50.0,40.1,48.6,44.1,40.1,100,82,45,29.97,29.85,11,1,13,0.18
2013-5-11,51.0,46.9,41.5,49.0,34.3,22.3,100,64,36,30.03,29.74,31,9,35,0.03
2013-5-12,54.4,43.8,34.3,30.4,23.6,15.4,76,48,23,30.10,30.01,20,7,26,0.01
2013-5-13,66.6,50.1,28.5,39.7,31.4,21.3,100,55,23,30.11,29.72,12,0,13,0.02
2013-5-14,90.7,73.5,56.3,58.1,48.6,-99.9,72,45,23,29.72,29.37,16,1,19,0.00
2013-5-15,77.6,68.2,57.2,49.9,43.4,33.8,67,43,21,29.79,29.46,19,5,20,0.00
2013-5-16,84.3,68.7,49.8,56.8,47.8,40.4,93,52,25,29.87,29.76,13,1,16,0.00
2013-5-17,62.9,54.1,47.9,58.4,47.3,-99.9,100,83,36,30.01,29.88,13,1,14,0.64
2013-5-18,78.5,64.9,50.4,66.7,58.5,50.4,100,82,59,30.00,29.79,14,1,16,0.00
2013-5-19,84.9,72.8,61.8,67.7,62.8,-99.9,100,75,49,29.81,29.51,21,2,30,0.00
2013-5-20,81.1,70.1,61.5,64.4,61.3,57.8,100,77,48,29.66,29.48,19,2,21,0.42
2013-5-21,71.5,64.4,56.5,64.7,59.4,-99.9,100,87,64,29.61,29.45,27,1,45,1.23
2013-5-22,59.5,56.4,51.3,59.5,56.4,51.3,100,100,100,29.79,29.57,19,1,19,2.23
2013-5-23,63.5,53.6,46.2,51.3,41.3,28.4,100,69,28,30.27,29.80,14,3,19,0.16
2013-5-24,66.0,53.1,36.8,45.2,38.4,30.6,100,62,28,30.40,30.21,11,0,0,0.00
2013-5-25,60.7,54.2,47.9,50.1,43.7,32.6,100,70,36,30.30,30.21,13,1,17,0.01
2013-5-26,63.1,55.0,47.3,52.4,43.9,36.5,91,68,40,30.24,30.07,16,1,19,0.00
2013-5-27,55.9,53.9,50.7,55.6,50.7,40.8,100,90,60,30.07,29.82,14,2,17,0.74
2013-5-28,61.6,55.5,50.7,61.6,55.5,50.7,100,100,100,29.82,29.64,8,0,0,0.07
2013-5-29,84.3,68.2,57.3,67.4,63.0,57.3,100,86,52,29.77,29.67,14,0,17,0.89
2013-5-30,80.9,70.6,62.7,73.4,67.0,62.7,100,89,59,29.70,29.53,19,1,21,0.10
2013-5-31,80.9,70.2,62.4,66.3,62.1,55.5,100,78,42,29.61,29.53,17,1,27,0.01
2013-6-1,74.9,64.2,53.2,63.4,55.5,-99.9,97,76,51,29.70,29.51,19,4,27,0.00
2013-6-2,63.7,52.6,44.8,49.6,42.7,38.4,100,71,43,29.98,29.71,22,5,24,0.00
2013-6-3,72.8,58.2,41.1,54.1,45.8,41.1,100,68,34,30.02,29.93,11,1,13,0.00
2013-6-4,55.9,54.4,51.9,55.9,54.2,51.9,100,99,90,30.10,29.98,10,0,0,0.75
2013-6-5,57.2,53.2,50.8,57.2,53.2,50.8,100,100,100,30.07,29.88,11,1,12,0.56
2013-6-6,57.0,53.4,51.0,56.6,53.4,51.0,100,100,96,29.94,29.86,5,0,0,0.00
2013-6-7,71.5,59.0,49.5,57.2,52.4,48.3,100,81,47,29.95,29.85,6,0,0,0.00
2013-6-8,68.8,59.0,53.6,59.8,56.6,53.6,100,92,70,29.91,29.84,10,0,0,0.16
2013-6-9,73.2,61.1,54.5,66.0,57.3,51.4,100,88,63,29.92,29.73,12,1,13,0.38
2013-6-10,76.8,68.0,57.2,68.0,62.5,57.2,100,84,62,29.78,29.72,11,2,0,0.01
2013-6-11,79.2,68.1,55.6,70.2,64.1,55.4,100,88,66,29.82,29.72,10,0,0,0.03
2013-6-12,75.3,67.2,60.5,71.8,65.5,59.0,100,95,77,29.82,29.61,11,0,14,0.23
2013-6-13,78.5,68.2,58.6,61.0,57.8,52.3,100,73,42,30.00,29.72,17,2,17,0.00
2013-6-14,79.8,66.4,51.4,62.1,56.4,51.0,100,73,45,30.07,29.85,7,0,0,0.00
2013-6-15,80.1,68.3,60.7,71.7,64.5,-99.9,100,90,67,29.94,29.72,13,1,17,0.84
2013-6-16,82.8,70.6,58.1,66.7,54.8,-99.9,100,68,29,29.82,29.76,14,3,17,0.01
2013-6-17,81.8,71.0,60.1,64.9,57.6,50.8,94,66,35,29.88,29.76,19,3,24,0.00
2013-6-18,75.1,64.0,54.2,60.9,51.2,41.8,98,66,40,30.01,29.88,9,0,12,0.00
2013-6-19,80.3,66.5,48.5,60.7,54.5,48.3,100,69,43,30.05,29.92,10,0,0,0.00
2013-6-20,87.2,74.1,57.0,64.6,60.5,57.0,100,66,39,29.99,29.87,12,0,19,0.00
2013-6-21,79.8,70.6,64.2,71.2,66.4,62.0,100,87,62,29.95,29.72,25,2,25,1.08
2013-6-22,83.4,71.7,66.6,71.9,68.5,66.6,100,91,63,29.97,29.76,35,1,38,0.42
2013-6-23,82.2,77.4,68.3,71.0,67.9,65.6,100,74,59,29.80,29.72,12,0,12,0.35
2013-6-24,81.2,72.3,66.1,73.4,68.6,66.0,100,89,70,29.85,29.71,11,0,17,0.00
2013-6-25,80.7,72.2,64.8,74.7,70.1,64.8,100,93,78,29.77,29.63,8,0,0,0.26
2013-6-26,87.0,76.8,70.1,75.7,72.5,69.9,100,88,58,29.63,29.55,10,0,0,0.02
2013-6-27,85.7,76.8,67.1,74.2,65.6,56.5,100,72,40,29.67,29.58,24,4,26,0.01
2013-6-28,73.7,68.0,63.1,69.9,62.7,55.4,100,84,62,29.61,29.53,20,4,24,0.14
2013-6-29,70.1,65.4,61.8,64.7,58.9,-99.9,100,84,74,29.83,29.55,10,0,7,0.04
2013-6-30,79.8,67.5,54.4,58.5,51.5,41.2,98,61,27,30.00,29.83,11,1,14,0.00
2013-7-1,82.2,68.0,52.2,65.0,55.6,48.6,100,70,34,30.09,30.00,12,0,14,0.00
2013-7-2,77.0,66.3,54.8,62.1,57.0,51.6,100,75,44,30.07,29.99,10,0,0,0.01
2013-7-3,76.0,63.2,48.9,61.7,55.2,45.4,100,79,37,30.04,29.93,8,0,0,0.00
2013-7-4,84.5,69.9,55.9,65.0,60.2,55.9,100,75,41,29.97,29.87,8,0,12,0.00
2013-7-5,87.0,73.9,57.0,67.4,61.7,57.0,100,70,40,29.93,29.84,10,0,0,0.00
2013-7-6,89.9,78.5,67.4,67.7,63.6,-99.9,88,65,44,29.89,29.80,11,0,12,0.00
2013-7-7,91.0,79.7,70.3,72.6,69.2,65.5,89,71,48,29.83,29.77,7,0,12,0.00
2013-7-8,91.0,81.2,74.9,76.1,72.3,69.3,97,76,54,29.87,29.74,11,1,13,0.00
2013-7-9,86.1,76.3,68.6,79.0,71.9,-99.9,100,89,67,29.88,29.69,18,1,21,0.20
2013-7-10,80.1,71.8,59.6,71.0,60.6,53.8,97,70,43,29.95,29.74,18,4,22,0.00
2013-7-11,86.5,70.6,55.4,64.7,59.1,53.7,100,72,35,30.03,29.95,0,0,0,0.00
2013-7-12,85.9,72.8,58.3,68.8,60.2,55.6,100,70,39,30.05,29.94,12,0,13,0.00
2013-7-13,84.9,71.5,60.2,75.1,62.4,57.8,100,76,45,30.05,29.95,13,0,16,0.00
2013-7-14,89.9,75.5,59.5,69.1,64.7,58.9,100,73,42,30.12,30.05,10,0,0,0.00
2013-7-15,91.2,78.4,63.7,75.4,70.4,63.7,100,79,52,30.18,30.09,5,0,0,0.00
2013-7-16,94.0,81.6,68.8,79.4,72.5,-99.9,100,78,47,30.16,30.09,12,1,16,0.00
2013-7-17,93.8,83.7,73.5,77.7,72.5,67.4,100,72,45,30.17,30.04,15,2,16,0.00
2013-7-18,94.7,84.0,72.8,76.2,71.9,67.7,100,70,47,30.04,29.72,16,2,21,0.00
2013-7-19,90.7,81.2,66.9,73.2,66.4,51.6,93,62,28,29.77,29.63,21,5,21,0.01
2013-7-20,84.5,72.9,60.4,99.9,61.5,-99.9,100,71,46,29.86,29.75,9,0,12,0.00
2013-7-21,69.8,64.9,59.6,67.9,63.0,56.8,100,94,78,29.92,29.81,11,0,13,1.55
2013-7-22,87.4,72.7,60.1,74.6,67.4,60.1,100,85,62,29.81,29.53,18,1,19,0.00
2013-7-23,74.0,67.1,57.3,67.5,55.9,50.6,94,69,45,29.94,29.65,16,3,17,0.00
2013-7-24,76.0,62.7,49.1,61.3,53.7,46.6,100,77,37,30.02,29.93,5,0,0,0.00
2013-7-25,79.2,66.1,55.0,69.2,62.1,55.0,100,88,62,29.96,29.86,16,0,16,0.04
2013-7-26,74.9,65.9,54.8,68.9,60.6,50.3,100,85,50,29.91,29.77,21,4,26,0.27
2013-7-27,58.1,52.9,47.1,53.5,49.5,45.5,100,88,66,29.93,29.81,18,5,18,0.07
2013-7-28,66.0,57.2,48.8,56.7,52.9,48.8,100,87,64,29.97,29.81,19,5,21,0.00
2013-7-29,78.8,65.2,52.5,61.9,55.8,51.6,100,75,47,30.06,29.97,6,0,0,0.00
2013-7-30,78.6,66.9,55.9,64.7,60.7,55.9,100,83,55,30.08,29.97,7,0,0,0.00
2013-7-31,77.6,68.1,59.8,67.7,64.7,59.8,100,90,63,29.98,29.86,20,1,22,0.20
2013-8-1,77.9,67.0,57.6,63.5,58.5,52.7,100,78,45,29.94,29.80,14,2,18,0.12
2013-8-2,77.7,67.6,58.4,66.2,58.7,52.6,100,76,45,29.92,29.74,18,3,18,0.02
2013-8-3,76.5,64.7,51.4,61.6,53.4,45.1,100,71,35,30.09,29.92,18,2,19,0.00
2013-8-4,76.3,62.6,15.0,60.1,54.4,1.4,100,78,46,30.17,30.01,0,0,0,0.00
2013-8-5,71.3,63.2,53.3,66.8,61.6,53.3,100,95,79,30.01,29.76,8,0,0,0.09
2013-8-6,84.5,72.9,61.8,70.2,65.9,59.7,100,81,51,29.77,29.63,24,2,29,0.47
2013-8-7,77.2,66.0,57.0,66.3,61.1,56.0,100,86,51,29.94,29.67,13,2,14,0.04
2013-8-8,78.1,64.6,48.3,60.8,55.2,48.3,100,76,44,29.98,29.90,5,0,0,0.00
2013-8-9,77.2,68.3,58.6,63.6,58.5,53.1,100,73,45,30.01,29.89,16,3,19,0.00
2013-8-10,74.6,64.3,54.8,59.6,55.6,51.1,100,76,47,30.10,30.01,9,0,0,0.00
2013-8-11,69.1,61.9,54.7,67.3,61.5,54.7,100,99,87,30.05,29.95,0,0,0,0.42
2013-8-12,78.1,66.1,56.2,70.3,59.8,52.8,100,83,42,29.96,29.85,12,2,16,0.01
2013-8-13,73.5,61.4,48.6,58.1,51.3,47.4,100,73,41,30.10,29.96,7,0,0,0.00
2013-8-14,74.2,61.2,47.7,57.8,52.9,47.7,100,78,46,30.14,30.02,7,0,0,0.00
2013-8-15,77.2,64.9,55.0,61.0,56.1,49.2,100,77,39,30.06,29.99,10,1,12,0.00
2013-8-16,81.4,66.5,50.8,63.6,55.6,49.5,100,73,37,30.10,30.04,7,0,0,0.00
2013-8-17,84.1,67.8,51.7,64.3,57.4,51.7,100,75,36,30.14,30.03,5,0,0,0.00
2013-8-18,83.4,68.3,52.3,66.5,58.3,52.3,100,75,40,30.10,29.96,7,0,0,0.00
2013-8-19,82.6,69.6,55.6,66.3,62.3,55.6,100,80,55,29.97,29.87,12,1,12,0.00
2013-8-20,88.2,76.7,65.5,70.0,64.1,-99.9,95,73,51,29.90,29.82,12,0,14,0.00
2013-8-21,88.8,78.4,69.4,76.1,70.4,65.6,100,78,59,29.87,29.75,14,1,19,0.01
2013-8-22,86.1,72.3,62.0,69.3,63.3,55.1,100,78,38,30.01,29.86,11,0,0,0.00
2013-8-23,85.7,70.2,55.9,63.5,59.4,-99.9,100,74,39,30.06,29.97,13,0,14,0.00
2013-8-24,85.5,72.1,56.3,70.9,63.5,52.0,100,77,49,30.08,29.93,12,0,15,0.00
2013-8-25,87.8,78.3,73.9,73.6,69.7,-99.9,88,78,38,29.96,29.93,13,0,13,0.00
2013-8-26,94.0,82.6,74.0,77.6,72.1,64.5,91,72,54,30.01,29.81,13,1,16,0.00
2013-8-27,93.4,83.9,76.5,78.2,73.7,70.9,96,73,53,29.81,29.68,14,2,16,0.00
2013-8-28,85.7,77.1,72.7,77.2,72.3,68.9,100,87,59,29.95,29.76,7,0,0,0.00
2013-8-29,91.8,77.6,62.6,74.9,70.6,62.6,100,82,55,29.99,29.81,10,0,0,0.00
2013-8-30,89.5,79.4,70.1,77.2,71.7,65.0,100,79,48,29.81,29.71,12,1,14,0.00
2013-8-31,86.5,71.9,60.2,66.9,63.8,57.2,100,79,41,29.81,29.67,4,0,0,0.00
2013-9-1,82.0,72.8,66.1,73.2,64.1,-99.9,100,78,47,29.79,29.64,18,3,20,0.00
2013-9-2,72.1,61.7,50.5,61.2,55.1,50.3,100,81,50,29.97,29.79,13,2,13,0.00
2013-9-3,74.2,58.9,42.2,58.9,51.0,42.2,100,79,41,30.04,29.93,11,0,12,0.00
2013-9-4,85.5,68.3,49.9,68.0,59.8,49.9,100,78,46,30.04,29.95,11,1,13,0.01
2013-9-5,80.5,67.9,59.8,65.5,59.9,54.6,100,79,42,30.19,30.04,11,0,13,0.00
2013-9-6,88.8,72.1,55.6,67.3,61.5,52.3,100,73,44,30.10,29.83,15,1,15,0.01
2013-9-7,91.4,75.5,67.9,71.6,66.7,62.1,92,75,48,29.89,29.76,10,0,14,0.00
2013-9-8,72.8,68.2,61.6,69.3,62.5,55.9,98,83,64,30.00,29.85,14,1,17,0.00
2013-9-9,91.6,77.5,62.3,75.6,68.2,-99.9,100,77,54,29.85,29.60,12,0,14,0.00
2013-9-10,89.7,80.4,69.9,70.5,65.8,60.8,79,62,48,29.86,29.65,14,3,18,0.00
2013-9-11,83.4,73.2,61.2,67.3,62.3,53.9,100,71,46,29.94,29.85,14,2,15,0.00
2013-9-12,73.5,62.1,52.6,57.8,51.4,-99.9,100,71,43,30.12,29.89,19,4,19,0.00
2013-9-13,68.4,53.5,40.8,53.1,40.9,32.4,100,69,28,30.20,30.08,8,0,0,0.00
2013-9-14,73.9,57.8,39.1,57.6,45.5,38.9,100,69,37,30.09,29.88,10,0,0,0.06
2013-9-15,75.1,57.8,54.2,59.6,55.0,48.8,100,91,65,30.21,29.84,10,0,12,0.87
2013-9-16,64.7,53.0,39.9,49.1,42.9,36.8,100,72,38,30.38,30.21,10,0,0,0.00
2013-9-17,66.0,52.9,38.0,58.7,49.5,38.0,100,90,59,30.29,29.97,12,0,14,0.20
2013-9-18,81.1,68.5,58.0,71.0,64.4,58.0,100,88,62,29.97,29.72,8,0,0,0.20
2013-9-19,83.4,74.3,67.1,75.3,70.2,-99.9,100,90,65,29.72,29.56,12,0,19,0.17
2013-9-20,67.1,61.4,53.8,67.1,59.5,51.8,100,94,67,29.80,29.63,18,4,18,0.04
2013-9-21,61.3,52.6,43.2,52.3,48.1,43.2,100,86,59,29.92,29.79,13,4,16,0.04
2013-9-22,70.2,51.1,36.9,67.4,44.6,36.9,100,81,51,30.03,29.92,5,0,0,0.01
2013-9-23,69.8,55.4,42.2,53.2,49.1,42.2,100,82,52,30.04,29.93,14,1,16,0.01
2013-9-24,72.1,56.5,44.8,57.0,50.3,44.8,100,83,44,29.98,29.88,10,0,0,0.00
2013-9-25,69.8,54.6,43.8,58.5,50.1,43.8,100,87,53,29.97,29.87,7,0,0,0.01
2013-9-26,75.4,58.4,43.5,60.5,52.6,43.5,100,84,50,30.00,29.91,10,0,12,0.01
2013-9-27,81.1,64.9,49.2,60.3,54.0,49.2,100,71,42,30.02,29.89,13,1,19,0.00
2013-9-28,78.1,60.6,50.2,67.1,56.4,50.2,100,88,54,29.90,29.68,22,2,22,0.29
2013-9-29,71.5,56.2,42.3,56.4,47.7,42.3,100,78,39,29.98,29.87,7,0,12,0.31
2013-9-30,72.8,58.8,43.2,52.2,47.8,43.2,100,71,37,29.87,29.67,15,0,17,0.00
2013-10-1,77.6,65.6,48.3,59.8,54.1,-99.9,93,70,40,29.91,29.65,16,3,18,0.00
2013-10-2,76.7,58.7,40.8,58.1,43.9,36.5,100,66,26,30.04,29.83,10,0,0,0.00
2013-10-3,68.3,60.3,54.4,65.5,58.5,46.1,100,94,65,29.86,29.75,25,0,29,0.38
2013-10-4,59.5,57.8,56.6,59.5,57.8,56.6,100,100,100,29.93,29.80,12,1,13,0.08
2013-10-5,67.8,60.7,50.2,67.8,60.5,49.8,100,99,86,29.89,29.62,24,1,27,0.02
2013-10-6,58.4,48.7,39.1,49.6,42.2,-99.9,100,82,49,29.69,29.61,10,0,0,0.02
2013-10-7,64.0,51.7,42.6,50.9,45.9,41.1,100,84,44,30.00,29.67,18,3,21,0.05
2013-10-8,75.8,55.9,38.3,55.8,45.1,38.3,100,73,33,30.05,29.94,10,0,17,0.01
2013-10-9,73.7,60.2,45.7,52.4,48.9,45.1,100,69,38,30.09,29.98,12,0,12,0.00
2013-10-10,73.5,55.3,39.8,57.2,47.1,39.8,100,79,40,30.08,29.92,11,0,13,0.00
2013-10-11,74.9,59.8,44.5,60.0,53.3,44.5,100,81,55,29.93,29.72,22,2,29,0.00
2013-10-12,65.6,58.8,44.3,58.8,47.7,37.6,89,68,45,30.08,29.70,22,4,25,0.00
2013-10-13,59.6,47.8,36.8,42.1,38.2,31.3,100,73,36,30.35,30.08,14,3,17,0.00
2013-10-14,59.0,46.0,31.2,44.8,39.3,31.2,100,80,54,30.36,30.01,13,0,14,0.00
2013-10-15,57.6,50.5,46.7,57.3,48.8,43.4,100,94,74,30.01,29.61,14,2,18,0.01
2013-10-16,49.8,47.0,38.0,48.3,45.3,-99.9,100,96,84,29.85,29.66,13,3,14,0.01
2013-10-17,50.8,38.7,32.5,41.9,37.0,32.5,100,94,65,29.84,29.69,0,0,0,0.01
2013-10-18,47.0,42.8,35.5,46.0,40.4,35.5,100,92,68,29.83,29.68,20,4,20,0.00
2013-10-19,49.6,38.2,30.1,44.5,34.7,30.1,100,89,51,29.81,29.60,22,2,29,0.05
2013-10-20,46.7,43.4,40.5,46.2,38.8,-99.9,100,93,38,29.72,29.60,21,4,22,0.00
2013-10-21,40.5,35.3,30.0,35.9,27.1,19.5,99,73,52,29.89,29.72,22,7,26,0.01
2013-10-22,45.2,34.3,25.6,31.5,26.8,22.5,96,75,51,29.96,29.87,13,3,12,0.00
2013-10-23,38.5,32.4,25.0,33.0,27.8,23.8,99,84,63,30.00,29.92,18,3,21,0.01
2013-10-24,42.1,35.2,28.5,28.9,25.4,22.5,89,68,48,30.27,30.00,18,5,19,0.01
2013-10-25,51.4,41.8,28.5,33.8,29.4,25.4,89,63,41,30.28,29.72,27,5,32,0.00
2013-10-26,51.4,45.0,37.6,38.3,31.5,26.0,76,59,43,30.01,29.67,26,8,34,0.00
2013-10-27,56.5,40.2,26.6,34.7,29.6,24.9,100,70,34,30.03,29.78,12,2,12,0.00
2013-10-28,41.6,37.4,30.6,32.0,27.8,24.3,86,69,52,30.38,30.03,11,0,0,0.00
2013-10-29,48.2,38.2,32.1,37.8,31.7,24.6,100,78,64,30.38,30.07,6,0,0,0.00
2013-10-30,53.8,48.1,36.9,53.8,48.0,36.9,100,100,95,30.07,29.65,13,1,13,0.00
2013-10-31,54.4,49.0,40.8,54.4,49.0,40.8,100,100,100,29.65,29.26,17,4,17,0.10
2013-11-1,46.1,41.8,35.0,43.1,40.0,34.2,100,93,79,29.72,29.27,18,6,18,0.01
2013-11-2,44.8,38.9,29.5,37.2,34.5,29.5,100,85,66,30.11,29.72,14,3,13,0.00
2013-11-3,50.4,38.2,23.8,37.6,30.6,23.8,100,77,44,30.22,30.04,14,2,14,0.01
2013-11-4,49.5,46.1,43.1,47.0,39.9,33.7,100,80,65,30.09,29.90,17,2,17,0.02
2013-11-5,48.0,41.2,30.6,45.4,40.4,30.6,100,97,74,30.21,29.76,8,0,0,0.75
2013-11-6,41.9,37.1,29.4,41.9,31.2,19.6,100,81,44,30.12,29.73,22,6,22,0.96
2013-11-7,35.5,30.2,25.1,30.3,27.5,23.4,100,90,77,30.20,30.12,14,2,0,0.00
2013-11-8,43.5,34.3,21.3,38.6,28.8,21.3,100,82,55,30.22,29.64,12,1,17,0.06
2013-11-9,47.0,43.3,38.2,41.5,34.8,25.5,87,72,56,30.05,29.61,33,9,33,0.08
2013-11-10,44.9,40.4,36.6,30.8,28.7,11.5,73,63,50,30.27,30.03,18,5,18,0.00
2013-11-11,41.2,29.1,19.5,35.7,20.3,8.3,100,70,50,30.60,29.99,16,5,16,0.04
2013-11-12,26.6,19.9,13.3,13.8,9.9,7.3,79,65,47,30.74,30.51,13,5,0,0.00
2013-11-13,44.2,32.5,17.7,27.3,17.4,10.4,76,55,38,30.51,29.91,20,5,20,0.01
2013-11-14,48.8,40.2,33.1,33.3,25.9,17.8,70,57,43,29.91,29.76,16,2,16,0.00
2013-11-15,54.8,39.5,27.8,40.2,32.9,26.1,100,79,49,29.84,29.75,8,0,0,0.00
2013-11-16,58.6,47.2,38.6,58.3,45.2,34.2,100,93,74,29.74,29.27,12,2,12,0.23
2013-11-17,53.2,45.2,35.6,53.2,43.3,28.8,100,93,71,29.63,29.18,27,7,27,0.15
2013-11-18,35.5,29.8,21.0,28.4,22.4,17.8,91,74,63,30.25,29.64,28,9,30,0.15
2013-11-19,40.1,29.2,16.9,28.1,22.1,16.5,100,76,48,30.31,30.09,10,1,0,0.00
2013-11-20,38.9,36.0,33.2,34.6,29.6,25.2,100,79,60,30.09,29.99,14,1,14,0.08
2013-11-21,38.9,35.6,30.1,38.9,35.5,28.6,100,100,94,30.31,30.03,12,1,12,0.01
2013-11-22,31.5,26.7,23.0,29.1,18.6,9.4,100,73,43,30.50,30.31,17,5,17,0.01
2013-11-23,23.0,13.8,8.1,16.9,2.8,-0.9,78,61,46,30.74,30.43,20,6,20,0.00
2013-11-24,24.4,16.0,3.5,6.6,2.3,-0.9,83,57,35,30.71,30.13,21,3,21,0.00
2013-11-25,36.2,30.6,24.4,27.2,20.0,3.3,84,65,39,30.11,29.91,19,7,19,0.00
2013-11-26,35.0,22.5,11.1,25.1,9.9,-0.3,86,58,39,30.27,29.94,22,8,22,0.00
2013-11-27,25.4,18.3,10.4,12.2,7.7,0.1,80,64,45,30.31,30.14,12,3,0,0.00
2013-11-28,28.4,23.3,13.6,14.6,11.7,9.0,86,61,49,30.50,30.08,12,2,0,0.00
2013-11-29,32.5,20.6,7.0,19.4,13.3,4.2,94,75,50,30.57,30.22,6,0,0,0.00
2013-11-30,44.1,35.5,29.4,29.0,25.1,19.0,80,66,51,30.22,29.95,11,1,0,0.00
2013-12-1,38.0,29.9,22.1,28.3,24.8,19.6,97,82,59,30.13,29.93,4,0,0,0.00
2013-12-2,39.3,29.4,18.3,34.3,27.2,18.1,100,92,70,29.92,29.65,12,1,12,0.04
2013-12-3,34.3,33.6,32.9,34.3,33.6,32.9,100,100,100,29.70,29.63,10,2,0,0.13
2013-12-4,37.6,34.0,30.3,37.6,33.5,24.6,100,98,82,29.69,29.37,26,3,26,0.19
2013-12-5,29.7,14.7,5.8,24.3,6.5,-1.1,82,70,57,30.30,29.57,26,11,26,0.19
2013-12-6,10.4,5.0,1.5,0.2,-2.2,-4.6,80,71,54,30.60,30.29,17,5,17,0.00
2013-12-7,9.2,1.9,-3.5,-1.5,-6.0,-99.9,82,69,42,30.72,30.60,12,3,0,0.00
2013-12-8,12.3,8.4,3.2,9.0,3.8,-4.5,87,81,63,30.63,30.00,8,0,0,0.00
2013-12-9,10.2,4.5,-4.3,7.1,-2.0,-10.5,87,73,54,30.15,29.95,22,4,22,0.00
2013-12-10,12.8,7.2,-3.7,7.8,-0.6,-9.4,83,70,53,30.21,29.84,28,5,28,0.00
2013-12-11,12.1,0.9,-5.4,8.7,-7.5,-13.6,86,65,46,30.53,30.21,16,4,12,0.00
2013-12-12,18.4,10.8,-4.1,11.7,2.4,-10.5,77,67,61,30.46,30.15,12,3,12,0.00
2013-12-13,20.3,16.4,12.9,12.7,8.6,2.2,84,71,61,30.25,30.11,17,1,17,0.00
2013-12-14,21.3,15.8,11.7,15.9,10.9,4.2,87,81,67,30.22,29.95,14,2,13,0.00
2013-12-15,11.7,3.8,-3.9,5.0,-5.9,-12.2,76,62,42,30.15,29.95,19,6,19,0.00
2013-12-16,14.8,6.2,-5.6,12.9,0.5,-12.3,92,76,60,30.16,29.95,11,1,0,0.00
2013-12-17,30.9,23.2,13.1,25.4,17.4,3.6,95,79,61,30.04,29.81,21,8,21,0.00
2013-12-18,35.5,22.2,2.4,28.2,14.2,-2.4,87,72,53,30.06,29.64,11,2,0,0.00
2013-12-19,30.9,24.3,20.8,27.1,20.8,16.4,100,86,79,29.96,29.70,13,1,13,0.00
2013-12-20,21.9,20.2,17.8,21.2,19.3,16.3,100,96,93,29.92,29.78,10,0,0,0.00
2013-12-21,26.0,23.8,21.1,26.0,23.4,20.6,100,99,87,29.87,29.76,0,0,0,0.00
2013-12-22,25.1,23.1,21.0,24.2,21.8,19.8,100,95,85,30.07,29.75,7,0,0,0.00
2013-12-23,21.0,5.5,-5.2,19.8,0.8,-9.4,97,80,71,30.44,30.07,12,4,14,0.00
2013-12-24,13.1,1.3,-16.1,6.6,-3.5,-20.6,87,77,70,30.51,30.20,11,0,0,0.00
2013-12-25,20.5,14.3,8.6,15.9,-6.6,-99.9,88,84,79,30.20,30.00,3,0,0,0.00
2013-12-26,23.3,17.9,11.7,19.4,13.2,-99.9,94,83,71,30.18,30.09,8,0,0,0.00
2013-12-27,37.9,22.7,3.7,30.7,17.8,-99.9,100,83,67,30.21,29.91,18,2,18,0.09
2013-12-28,41.6,34.2,21.8,35.3,26.1,-99.9,100,81,60,29.96,29.65,11,1,0,0.27
2013-12-29,38.5,11.7,-10.3,32.7,4.7,-18.9,100,72,55,30.29,29.68,24,8,24,0.00
2013-12-30,0.7,-6.5,-17.8,-5.4,-13.6,-22.6,78,66,42,30.35,30.21,7,1,0,0.00
2013-12-31,4.1,-0.3,-8.4,-4.6,-7.6,-14.7,78,68,55,30.42,30.19,12,3,0,0.00
2014-1-1,7.0,0.9,-8.6,-4.2,-8.8,-15.2,69,60,48,30.46,30.36,5,0,0,0.00
2014-1-2,9.0,2.2,-10.0,-3.5,-6.9,-14.1,76,63,45,30.46,30.33,13,1,0,0.00